sensor_id;sensor_type;location;lat;lon;timestamp;P1;durP1;ratioP1;P2;durP2;ratioP2
65009;SDS011;51556;50.002;22.014;2023-02-15T00:00:25;35.80;;;19.80;;
65009;SDS011;51556;50.002;22.014;2023-02-15T00:02:51;32.70;;;20.00;;
65009;SDS011;51556;50.002;22.014;2023-02-15T00:05:16;30.80;;;17.90;;
65009;SDS011;51556;50.002;22.014;2023-02-15T00:07:42;29.30;;;17.20;;
65009;SDS011;51556;50.002;22.014;2023-02-15T00:10:07;42.20;;;22.00;;
65009;SDS011;51556;50.002;22.014;2023-02-15T00:12:33;45.40;;;22.70;;
65009;SDS011;51556;50.002;22.014;2023-02-15T00:14:58;43.00;;;21.60;;
65009;SDS011;51556;50.002;22.014;2023-02-15T00:17:26;39.00;;;19.80;;
65009;SDS011;51556;50.002;22.014;2023-02-15T00:19:53;39.70;;;20.20;;
65009;SDS011;51556;50.002;22.014;2023-02-15T00:22:18;34.70;;;19.50;;
65009;SDS011;51556;50.002;22.014;2023-02-15T00:24:44;37.40;;;19.40;;
65009;SDS011;51556;50.002;22.014;2023-02-15T00:27:10;37.60;;;19.70;;
65009;SDS011;51556;50.002;22.014;2023-02-15T00:29:35;41.00;;;19.20;;
65009;SDS011;51556;50.002;22.014;2023-02-15T00:32:01;36.10;;;19.80;;
65009;SDS011;51556;50.002;22.014;2023-02-15T00:34:27;32.30;;;17.00;;
65009;SDS011;51556;50.002;22.014;2023-02-15T00:36:52;29.50;;;16.90;;
65009;SDS011;51556;50.002;22.014;2023-02-15T00:39:18;36.30;;;17.60;;
65009;SDS011;51556;50.002;22.014;2023-02-15T00:41:44;29.50;;;16.80;;
65009;SDS011;51556;50.002;22.014;2023-02-15T00:44:10;31.90;;;16.80;;
65009;SDS011;51556;50.002;22.014;2023-02-15T00:46:36;32.70;;;16.80;;
65009;SDS011;51556;50.002;22.014;2023-02-15T00:49:02;30.90;;;16.50;;
65009;SDS011;51556;50.002;22.014;2023-02-15T00:51:28;31.20;;;17.60;;
65009;SDS011;51556;50.002;22.014;2023-02-15T00:53:54;30.20;;;16.60;;
65009;SDS011;51556;50.002;22.014;2023-02-15T00:56:19;29.30;;;17.10;;
65009;SDS011;51556;50.002;22.014;2023-02-15T00:58:45;36.80;;;19.00;;
65009;SDS011;51556;50.002;22.014;2023-02-15T01:01:14;40.90;;;21.60;;
65009;SDS011;51556;50.002;22.014;2023-02-15T01:03:42;28.70;;;15.90;;
65009;SDS011;51556;50.002;22.014;2023-02-15T01:06:07;34.10;;;17.60;;
65009;SDS011;51556;50.002;22.014;2023-02-15T01:08:33;30.10;;;16.40;;
65009;SDS011;51556;50.002;22.014;2023-02-15T01:11:03;30.40;;;17.40;;
65009;SDS011;51556;50.002;22.014;2023-02-15T01:13:33;30.40;;;16.20;;
65009;SDS011;51556;50.002;22.014;2023-02-15T01:15:59;21.70;;;13.40;;
65009;SDS011;51556;50.002;22.014;2023-02-15T01:18:25;26.30;;;15.10;;
65009;SDS011;51556;50.002;22.014;2023-02-15T01:20:51;29.20;;;16.00;;
65009;SDS011;51556;50.002;22.014;2023-02-15T01:23:17;31.90;;;16.60;;
65009;SDS011;51556;50.002;22.014;2023-02-15T01:25:42;30.70;;;17.10;;
65009;SDS011;51556;50.002;22.014;2023-02-15T01:28:08;33.90;;;17.20;;
65009;SDS011;51556;50.002;22.014;2023-02-15T01:30:33;29.60;;;15.40;;
65009;SDS011;51556;50.002;22.014;2023-02-15T01:32:59;30.10;;;17.40;;
65009;SDS011;51556;50.002;22.014;2023-02-15T01:35:25;32.40;;;17.60;;
65009;SDS011;51556;50.002;22.014;2023-02-15T01:37:52;28.60;;;17.10;;
65009;SDS011;51556;50.002;22.014;2023-02-15T01:40:17;28.20;;;15.30;;
65009;SDS011;51556;50.002;22.014;2023-02-15T01:42:43;27.60;;;15.90;;
65009;SDS011;51556;50.002;22.014;2023-02-15T01:45:29;30.30;;;16.70;;
65009;SDS011;51556;50.002;22.014;2023-02-15T01:48:09;33.20;;;17.70;;
65009;SDS011;51556;50.002;22.014;2023-02-15T01:50:53;34.10;;;17.60;;
65009;SDS011;51556;50.002;22.014;2023-02-15T01:55:53;29.60;;;15.90;;
65009;SDS011;51556;50.002;22.014;2023-02-15T01:58:22;30.50;;;15.00;;
65009;SDS011;51556;50.002;22.014;2023-02-15T02:00:51;33.20;;;16.60;;
65009;SDS011;51556;50.002;22.014;2023-02-15T02:03:17;28.30;;;15.90;;
65009;SDS011;51556;50.002;22.014;2023-02-15T02:05:47;30.60;;;16.00;;
65009;SDS011;51556;50.002;22.014;2023-02-15T02:08:13;28.10;;;14.80;;
65009;SDS011;51556;50.002;22.014;2023-02-15T02:10:38;28.70;;;14.90;;
65009;SDS011;51556;50.002;22.014;2023-02-15T02:13:04;27.40;;;15.20;;
65009;SDS011;51556;50.002;22.014;2023-02-15T02:24:23;26.40;;;15.00;;
65009;SDS011;51556;50.002;22.014;2023-02-15T02:29:40;26.30;;;14.50;;
65009;SDS011;51556;50.002;22.014;2023-02-15T02:45:53;29.80;;;15.60;;
65009;SDS011;51556;50.002;22.014;2023-02-15T02:48:24;25.00;;;13.80;;
65009;SDS011;51556;50.002;22.014;2023-02-15T02:50:52;28.40;;;14.40;;
65009;SDS011;51556;50.002;22.014;2023-02-15T02:53:18;30.20;;;15.60;;
65009;SDS011;51556;50.002;22.014;2023-02-15T02:55:45;26.90;;;14.00;;
65009;SDS011;51556;50.002;22.014;2023-02-15T02:58:31;26.50;;;13.60;;
65009;SDS011;51556;50.002;22.014;2023-02-15T03:03:46;26.70;;;14.40;;
65009;SDS011;51556;50.002;22.014;2023-02-15T03:06:17;26.60;;;14.30;;
65009;SDS011;51556;50.002;22.014;2023-02-15T03:08:47;27.80;;;14.70;;
65009;SDS011;51556;50.002;22.014;2023-02-15T03:11:15;30.10;;;14.40;;
65009;SDS011;51556;50.002;22.014;2023-02-15T03:13:41;25.50;;;13.20;;
65009;SDS011;51556;50.002;22.014;2023-02-15T03:16:10;27.00;;;13.80;;
65009;SDS011;51556;50.002;22.014;2023-02-15T03:18:58;28.70;;;14.60;;
65009;SDS011;51556;50.002;22.014;2023-02-15T03:24:08;22.90;;;12.90;;
65009;SDS011;51556;50.002;22.014;2023-02-15T03:26:37;21.60;;;12.60;;
65009;SDS011;51556;50.002;22.014;2023-02-15T03:29:05;25.30;;;12.40;;
65009;SDS011;51556;50.002;22.014;2023-02-15T03:31:35;20.90;;;12.20;;
65009;SDS011;51556;50.002;22.014;2023-02-15T03:34:06;22.90;;;12.00;;
65009;SDS011;51556;50.002;22.014;2023-02-15T03:36:43;21.70;;;12.20;;
65009;SDS011;51556;50.002;22.014;2023-02-15T03:39:17;23.00;;;13.60;;
65009;SDS011;51556;50.002;22.014;2023-02-15T03:41:58;20.90;;;11.90;;
65009;SDS011;51556;50.002;22.014;2023-02-15T03:44:32;23.90;;;12.30;;
65009;SDS011;51556;50.002;22.014;2023-02-15T03:47:05;23.40;;;12.60;;
65009;SDS011;51556;50.002;22.014;2023-02-15T03:49:42;43.10;;;21.40;;
65009;SDS011;51556;50.002;22.014;2023-02-15T03:52:13;26.90;;;13.30;;
65009;SDS011;51556;50.002;22.014;2023-02-15T03:54:41;24.30;;;12.60;;
65009;SDS011;51556;50.002;22.014;2023-02-15T04:00:12;26.60;;;13.60;;
65009;SDS011;51556;50.002;22.014;2023-02-15T04:05:22;26.90;;;13.90;;
65009;SDS011;51556;50.002;22.014;2023-02-15T04:07:47;25.10;;;12.80;;
65009;SDS011;51556;50.002;22.014;2023-02-15T04:10:12;25.00;;;12.60;;
65009;SDS011;51556;50.002;22.014;2023-02-15T04:12:56;47.70;;;21.00;;
65009;SDS011;51556;50.002;22.014;2023-02-15T04:15:22;25.60;;;14.20;;
65009;SDS011;51556;50.002;22.014;2023-02-15T04:18:06;34.80;;;18.50;;
65009;SDS011;51556;50.002;22.014;2023-02-15T04:20:31;39.00;;;20.60;;
65009;SDS011;51556;50.002;22.014;2023-02-15T04:23:15;29.50;;;16.60;;
65009;SDS011;51556;50.002;22.014;2023-02-15T04:26:02;33.00;;;15.80;;
65009;SDS011;51556;50.002;22.014;2023-02-15T04:28:32;43.60;;;21.70;;
65009;SDS011;51556;50.002;22.014;2023-02-15T04:30:57;53.50;;;27.70;;
65009;SDS011;51556;50.002;22.014;2023-02-15T04:33:23;45.20;;;23.00;;
65009;SDS011;51556;50.002;22.014;2023-02-15T04:35:48;41.80;;;22.70;;
65009;SDS011;51556;50.002;22.014;2023-02-15T04:38:14;36.10;;;19.50;;
65009;SDS011;51556;50.002;22.014;2023-02-15T04:40:39;32.00;;;15.40;;
65009;SDS011;51556;50.002;22.014;2023-02-15T04:43:04;14.80;;;9.10;;
65009;SDS011;51556;50.002;22.014;2023-02-15T04:45:30;21.40;;;11.40;;
65009;SDS011;51556;50.002;22.014;2023-02-15T04:47:55;18.80;;;11.40;;
65009;SDS011;51556;50.002;22.014;2023-02-15T04:50:21;20.50;;;12.30;;
65009;SDS011;51556;50.002;22.014;2023-02-15T04:52:46;23.50;;;12.00;;
65009;SDS011;51556;50.002;22.014;2023-02-15T04:55:12;23.10;;;11.70;;
65009;SDS011;51556;50.002;22.014;2023-02-15T04:57:39;20.00;;;11.90;;
65009;SDS011;51556;50.002;22.014;2023-02-15T05:00:04;22.40;;;11.70;;
65009;SDS011;51556;50.002;22.014;2023-02-15T05:02:30;21.10;;;11.50;;
65009;SDS011;51556;50.002;22.014;2023-02-15T05:04:55;22.90;;;11.50;;
65009;SDS011;51556;50.002;22.014;2023-02-15T05:07:21;21.50;;;11.70;;
65009;SDS011;51556;50.002;22.014;2023-02-15T05:09:46;20.50;;;11.60;;
65009;SDS011;51556;50.002;22.014;2023-02-15T05:12:12;20.10;;;11.60;;
65009;SDS011;51556;50.002;22.014;2023-02-15T05:14:37;22.40;;;12.90;;
65009;SDS011;51556;50.002;22.014;2023-02-15T05:17:02;26.70;;;14.20;;
65009;SDS011;51556;50.002;22.014;2023-02-15T05:19:30;31.10;;;15.20;;
65009;SDS011;51556;50.002;22.014;2023-02-15T05:21:55;31.50;;;16.00;;
65009;SDS011;51556;50.002;22.014;2023-02-15T05:24:21;31.30;;;16.50;;
65009;SDS011;51556;50.002;22.014;2023-02-15T05:27:05;30.90;;;17.00;;
65009;SDS011;51556;50.002;22.014;2023-02-15T05:29:48;32.30;;;16.60;;
65009;SDS011;51556;50.002;22.014;2023-02-15T05:32:14;31.90;;;16.00;;
65009;SDS011;51556;50.002;22.014;2023-02-15T05:34:40;40.60;;;19.00;;
65009;SDS011;51556;50.002;22.014;2023-02-15T05:37:05;36.50;;;18.30;;
65009;SDS011;51556;50.002;22.014;2023-02-15T05:39:32;35.00;;;17.30;;
65009;SDS011;51556;50.002;22.014;2023-02-15T05:41:58;38.50;;;20.30;;
65009;SDS011;51556;50.002;22.014;2023-02-15T05:44:24;40.20;;;23.10;;
65009;SDS011;51556;50.002;22.014;2023-02-15T05:46:50;38.10;;;20.80;;
65009;SDS011;51556;50.002;22.014;2023-02-15T05:49:15;35.80;;;19.80;;
65009;SDS011;51556;50.002;22.014;2023-02-15T05:51:40;37.30;;;18.60;;
65009;SDS011;51556;50.002;22.014;2023-02-15T05:54:06;33.60;;;17.90;;
65009;SDS011;51556;50.002;22.014;2023-02-15T05:56:31;34.30;;;19.00;;
65009;SDS011;51556;50.002;22.014;2023-02-15T05:58:57;39.20;;;20.20;;
65009;SDS011;51556;50.002;22.014;2023-02-15T06:01:22;41.40;;;19.80;;
65009;SDS011;51556;50.002;22.014;2023-02-15T06:03:48;38.90;;;19.60;;
65009;SDS011;51556;50.002;22.014;2023-02-15T06:06:14;41.40;;;21.50;;
65009;SDS011;51556;50.002;22.014;2023-02-15T06:08:39;41.00;;;20.90;;
65009;SDS011;51556;50.002;22.014;2023-02-15T06:11:05;43.00;;;21.50;;
65009;SDS011;51556;50.002;22.014;2023-02-15T06:13:31;42.30;;;20.80;;
65009;SDS011;51556;50.002;22.014;2023-02-15T06:15:56;43.30;;;20.80;;
65009;SDS011;51556;50.002;22.014;2023-02-15T06:18:22;42.50;;;20.60;;
65009;SDS011;51556;50.002;22.014;2023-02-15T06:20:48;48.60;;;21.90;;
65009;SDS011;51556;50.002;22.014;2023-02-15T06:23:13;49.20;;;21.30;;
65009;SDS011;51556;50.002;22.014;2023-02-15T06:25:39;46.70;;;20.60;;
65009;SDS011;51556;50.002;22.014;2023-02-15T06:28:05;26.10;;;14.00;;
65009;SDS011;51556;50.002;22.014;2023-02-15T06:30:30;24.50;;;14.40;;
65009;SDS011;51556;50.002;22.014;2023-02-15T06:32:56;35.30;;;19.40;;
65009;SDS011;51556;50.002;22.014;2023-02-15T06:35:21;47.70;;;23.30;;
65009;SDS011;51556;50.002;22.014;2023-02-15T06:37:47;45.10;;;21.90;;
65009;SDS011;51556;50.002;22.014;2023-02-15T06:40:13;41.80;;;21.40;;
65009;SDS011;51556;50.002;22.014;2023-02-15T06:42:39;45.70;;;21.70;;
65009;SDS011;51556;50.002;22.014;2023-02-15T06:45:05;49.30;;;21.30;;
65009;SDS011;51556;50.002;22.014;2023-02-15T06:47:31;42.80;;;20.70;;
65009;SDS011;51556;50.002;22.014;2023-02-15T06:49:56;42.70;;;21.30;;
65009;SDS011;51556;50.002;22.014;2023-02-15T06:52:22;34.50;;;17.50;;
65009;SDS011;51556;50.002;22.014;2023-02-15T06:54:48;44.20;;;18.30;;
65009;SDS011;51556;50.002;22.014;2023-02-15T06:57:13;39.60;;;19.60;;
65009;SDS011;51556;50.002;22.014;2023-02-15T06:59:38;40.30;;;19.90;;
65009;SDS011;51556;50.002;22.014;2023-02-15T07:02:04;52.80;;;22.40;;
65009;SDS011;51556;50.002;22.014;2023-02-15T07:04:29;35.00;;;19.10;;
65009;SDS011;51556;50.002;22.014;2023-02-15T07:06:55;39.50;;;18.90;;
65009;SDS011;51556;50.002;22.014;2023-02-15T07:09:21;37.10;;;19.00;;
65009;SDS011;51556;50.002;22.014;2023-02-15T07:11:47;36.70;;;18.50;;
65009;SDS011;51556;50.002;22.014;2023-02-15T07:14:31;40.90;;;17.20;;
65009;SDS011;51556;50.002;22.014;2023-02-15T07:16:56;30.10;;;15.80;;
65009;SDS011;51556;50.002;22.014;2023-02-15T07:19:22;33.20;;;16.70;;
65009;SDS011;51556;50.002;22.014;2023-02-15T07:21:47;32.30;;;17.00;;
65009;SDS011;51556;50.002;22.014;2023-02-15T07:24:13;27.90;;;15.60;;
65009;SDS011;51556;50.002;22.014;2023-02-15T07:26:39;23.90;;;11.30;;
65009;SDS011;51556;50.002;22.014;2023-02-15T07:29:04;28.80;;;15.60;;
65009;SDS011;51556;50.002;22.014;2023-02-15T07:31:30;21.90;;;11.40;;
65009;SDS011;51556;50.002;22.014;2023-02-15T07:33:55;23.20;;;12.00;;
65009;SDS011;51556;50.002;22.014;2023-02-15T07:36:21;26.70;;;13.70;;
65009;SDS011;51556;50.002;22.014;2023-02-15T07:38:46;27.80;;;13.20;;
65009;SDS011;51556;50.002;22.014;2023-02-15T07:41:12;19.20;;;11.50;;
65009;SDS011;51556;50.002;22.014;2023-02-15T07:43:39;20.00;;;11.20;;
65009;SDS011;51556;50.002;22.014;2023-02-15T07:46:10;19.60;;;10.90;;
65009;SDS011;51556;50.002;22.014;2023-02-15T07:48:38;21.70;;;12.70;;
65009;SDS011;51556;50.002;22.014;2023-02-15T07:51:05;20.90;;;10.50;;
65009;SDS011;51556;50.002;22.014;2023-02-15T07:53:33;19.80;;;11.60;;
65009;SDS011;51556;50.002;22.014;2023-02-15T07:56:02;23.30;;;12.40;;
65009;SDS011;51556;50.002;22.014;2023-02-15T08:01:13;21.90;;;11.70;;
65009;SDS011;51556;50.002;22.014;2023-02-15T08:03:39;21.90;;;11.50;;
65009;SDS011;51556;50.002;22.014;2023-02-15T08:06:05;24.90;;;12.50;;
65009;SDS011;51556;50.002;22.014;2023-02-15T08:08:33;21.80;;;13.00;;
65009;SDS011;51556;50.002;22.014;2023-02-15T08:16:37;24.70;;;13.50;;
65009;SDS011;51556;50.002;22.014;2023-02-15T08:21:54;23.50;;;12.90;;
65009;SDS011;51556;50.002;22.014;2023-02-15T08:24:29;26.00;;;13.50;;
65009;SDS011;51556;50.002;22.014;2023-02-15T08:26:56;24.20;;;13.10;;
65009;SDS011;51556;50.002;22.014;2023-02-15T08:29:24;24.20;;;12.60;;
65009;SDS011;51556;50.002;22.014;2023-02-15T08:31:59;26.40;;;13.00;;
65009;SDS011;51556;50.002;22.014;2023-02-15T08:34:30;30.30;;;14.30;;
65009;SDS011;51556;50.002;22.014;2023-02-15T08:36:57;26.00;;;13.30;;
65009;SDS011;51556;50.002;22.014;2023-02-15T08:39:22;23.70;;;12.90;;
65009;SDS011;51556;50.002;22.014;2023-02-15T08:41:48;22.80;;;12.70;;
65009;SDS011;51556;50.002;22.014;2023-02-15T08:44:14;23.60;;;12.30;;
65009;SDS011;51556;50.002;22.014;2023-02-15T08:46:42;23.40;;;12.00;;
65009;SDS011;51556;50.002;22.014;2023-02-15T08:49:09;21.60;;;11.70;;
65009;SDS011;51556;50.002;22.014;2023-02-15T08:51:37;21.80;;;12.20;;
65009;SDS011;51556;50.002;22.014;2023-02-15T08:54:07;23.60;;;12.10;;
65009;SDS011;51556;50.002;22.014;2023-02-15T08:56:38;25.10;;;13.00;;
65009;SDS011;51556;50.002;22.014;2023-02-15T08:59:05;25.60;;;13.90;;
65009;SDS011;51556;50.002;22.014;2023-02-15T09:01:33;23.90;;;13.70;;
65009;SDS011;51556;50.002;22.014;2023-02-15T09:04:08;24.10;;;12.80;;
65009;SDS011;51556;50.002;22.014;2023-02-15T09:06:35;27.30;;;13.20;;
65009;SDS011;51556;50.002;22.014;2023-02-15T09:09:02;20.20;;;12.00;;
65009;SDS011;51556;50.002;22.014;2023-02-15T09:11:29;20.60;;;10.60;;
65009;SDS011;51556;50.002;22.014;2023-02-15T09:16:23;22.70;;;12.40;;
65009;SDS011;51556;50.002;22.014;2023-02-15T09:18:53;23.10;;;12.60;;
65009;SDS011;51556;50.002;22.014;2023-02-15T09:21:21;21.80;;;11.90;;
65009;SDS011;51556;50.002;22.014;2023-02-15T09:23:49;24.70;;;12.80;;
65009;SDS011;51556;50.002;22.014;2023-02-15T09:26:17;22.90;;;12.80;;
65009;SDS011;51556;50.002;22.014;2023-02-15T09:28:45;18.40;;;10.60;;
65009;SDS011;51556;50.002;22.014;2023-02-15T09:31:15;25.50;;;12.80;;
65009;SDS011;51556;50.002;22.014;2023-02-15T09:33:43;21.40;;;12.10;;
65009;SDS011;51556;50.002;22.014;2023-02-15T09:36:17;22.80;;;12.10;;
65009;SDS011;51556;50.002;22.014;2023-02-15T09:38:47;24.60;;;13.10;;
65009;SDS011;51556;50.002;22.014;2023-02-15T09:49:32;27.00;;;12.80;;
65009;SDS011;51556;50.002;22.014;2023-02-15T09:52:05;28.00;;;14.20;;
65009;SDS011;51556;50.002;22.014;2023-02-15T09:57:17;24.10;;;13.50;;
65009;SDS011;51556;50.002;22.014;2023-02-15T10:03:22;27.50;;;13.70;;
65009;SDS011;51556;50.002;22.014;2023-02-15T10:28:52;20.20;;;11.70;;
65009;SDS011;51556;50.002;22.014;2023-02-15T10:31:23;24.10;;;14.10;;
65009;SDS011;51556;50.002;22.014;2023-02-15T10:42:11;24.70;;;13.60;;
65009;SDS011;51556;50.002;22.014;2023-02-15T10:53:31;24.40;;;13.10;;
65009;SDS011;51556;50.002;22.014;2023-02-15T10:56:24;23.60;;;12.90;;
65009;SDS011;51556;50.002;22.014;2023-02-15T11:06:58;26.00;;;14.10;;
65009;SDS011;51556;50.002;22.014;2023-02-15T11:09:38;26.80;;;14.00;;
65009;SDS011;51556;50.002;22.014;2023-02-15T11:12:10;24.10;;;13.40;;
65009;SDS011;51556;50.002;22.014;2023-02-15T11:14:49;27.70;;;13.20;;
65009;SDS011;51556;50.002;22.014;2023-02-15T11:17:38;25.10;;;12.80;;
65009;SDS011;51556;50.002;22.014;2023-02-15T11:22:44;24.30;;;13.10;;
65009;SDS011;51556;50.002;22.014;2023-02-15T11:25:32;22.30;;;12.70;;
65009;SDS011;51556;50.002;22.014;2023-02-15T11:28:00;22.20;;;12.30;;
65009;SDS011;51556;50.002;22.014;2023-02-15T11:30:36;21.30;;;12.70;;
65009;SDS011;51556;50.002;22.014;2023-02-15T11:33:13;24.50;;;13.10;;
65009;SDS011;51556;50.002;22.014;2023-02-15T11:36:01;22.80;;;12.80;;
65009;SDS011;51556;50.002;22.014;2023-02-15T11:38:36;23.70;;;13.50;;
65009;SDS011;51556;50.002;22.014;2023-02-15T11:41:10;21.60;;;11.30;;
65009;SDS011;51556;50.002;22.014;2023-02-15T11:46:04;22.00;;;13.10;;
65009;SDS011;51556;50.002;22.014;2023-02-15T11:48:31;19.70;;;12.20;;
65009;SDS011;51556;50.002;22.014;2023-02-15T11:50:58;24.90;;;13.40;;
65009;SDS011;51556;50.002;22.014;2023-02-15T11:53:25;20.40;;;12.20;;
65009;SDS011;51556;50.002;22.014;2023-02-15T11:55:56;22.50;;;12.90;;
65009;SDS011;51556;50.002;22.014;2023-02-15T11:58:40;23.20;;;12.70;;
65009;SDS011;51556;50.002;22.014;2023-02-15T12:04:11;20.20;;;11.90;;
65009;SDS011;51556;50.002;22.014;2023-02-15T12:09:29;21.00;;;13.10;;
65009;SDS011;51556;50.002;22.014;2023-02-15T12:14:50;20.20;;;12.10;;
65009;SDS011;51556;50.002;22.014;2023-02-15T12:17:17;23.40;;;13.90;;
65009;SDS011;51556;50.002;22.014;2023-02-15T12:19:45;25.00;;;13.60;;
65009;SDS011;51556;50.002;22.014;2023-02-15T12:22:23;19.90;;;12.50;;
65009;SDS011;51556;50.002;22.014;2023-02-15T12:24:52;21.90;;;12.80;;
65009;SDS011;51556;50.002;22.014;2023-02-15T12:27:27;20.70;;;12.90;;
65009;SDS011;51556;50.002;22.014;2023-02-15T12:32:36;19.30;;;12.40;;
65009;SDS011;51556;50.002;22.014;2023-02-15T12:35:18;19.80;;;11.30;;
65009;SDS011;51556;50.002;22.014;2023-02-15T12:37:53;20.00;;;12.50;;
65009;SDS011;51556;50.002;22.014;2023-02-15T12:40:24;16.80;;;11.00;;
65009;SDS011;51556;50.002;22.014;2023-02-15T12:42:53;17.60;;;11.40;;
65009;SDS011;51556;50.002;22.014;2023-02-15T12:45:20;17.40;;;11.40;;
65009;SDS011;51556;50.002;22.014;2023-02-15T12:50:43;27.30;;;14.90;;
65009;SDS011;51556;50.002;22.014;2023-02-15T12:55:54;18.70;;;11.90;;
65009;SDS011;51556;50.002;22.014;2023-02-15T12:58:22;21.60;;;13.80;;
65009;SDS011;51556;50.002;22.014;2023-02-15T13:03:33;20.60;;;12.50;;
65009;SDS011;51556;50.002;22.014;2023-02-15T13:05:59;18.80;;;11.30;;
65009;SDS011;51556;50.002;22.014;2023-02-15T13:08:28;18.80;;;11.90;;
65009;SDS011;51556;50.002;22.014;2023-02-15T13:10:59;19.70;;;12.70;;
65009;SDS011;51556;50.002;22.014;2023-02-15T13:13:45;18.70;;;12.30;;
65009;SDS011;51556;50.002;22.014;2023-02-15T13:16:19;19.20;;;11.80;;
65009;SDS011;51556;50.002;22.014;2023-02-15T13:18:54;22.50;;;13.60;;
65009;SDS011;51556;50.002;22.014;2023-02-15T13:21:25;19.10;;;12.80;;
65009;SDS011;51556;50.002;22.014;2023-02-15T13:24:01;23.20;;;13.10;;
65009;SDS011;51556;50.002;22.014;2023-02-15T13:26:31;20.40;;;12.80;;
65009;SDS011;51556;50.002;22.014;2023-02-15T13:29:10;21.60;;;13.10;;
65009;SDS011;51556;50.002;22.014;2023-02-15T13:31:43;21.30;;;12.70;;
65009;SDS011;51556;50.002;22.014;2023-02-15T13:34:14;17.80;;;11.80;;
65009;SDS011;51556;50.002;22.014;2023-02-15T13:42:16;18.20;;;11.70;;
65009;SDS011;51556;50.002;22.014;2023-02-15T13:47:44;18.30;;;12.40;;
65009;SDS011;51556;50.002;22.014;2023-02-15T13:50:26;19.50;;;12.60;;
65009;SDS011;51556;50.002;22.014;2023-02-15T13:55:35;19.50;;;13.00;;
65009;SDS011;51556;50.002;22.014;2023-02-15T13:58:08;16.40;;;11.30;;
65009;SDS011;51556;50.002;22.014;2023-02-15T14:00:55;19.00;;;12.50;;
65009;SDS011;51556;50.002;22.014;2023-02-15T14:20:51;20.30;;;12.80;;
65009;SDS011;51556;50.002;22.014;2023-02-15T14:26:04;20.90;;;11.70;;
65009;SDS011;51556;50.002;22.014;2023-02-15T14:31:23;18.00;;;11.30;;
65009;SDS011;51556;50.002;22.014;2023-02-15T14:33:56;19.20;;;12.10;;
65009;SDS011;51556;50.002;22.014;2023-02-15T14:36:22;16.10;;;10.80;;
65009;SDS011;51556;50.002;22.014;2023-02-15T14:42:18;19.20;;;11.70;;
65009;SDS011;51556;50.002;22.014;2023-02-15T14:47:48;21.30;;;14.00;;
65009;SDS011;51556;50.002;22.014;2023-02-15T14:50:35;25.90;;;15.80;;
65009;SDS011;51556;50.002;22.014;2023-02-15T15:01:24;21.90;;;13.80;;
65009;SDS011;51556;50.002;22.014;2023-02-15T15:03:55;20.20;;;11.80;;
65009;SDS011;51556;50.002;22.014;2023-02-15T15:06:31;22.80;;;13.10;;
65009;SDS011;51556;50.002;22.014;2023-02-15T15:09:00;25.20;;;13.60;;
65009;SDS011;51556;50.002;22.014;2023-02-15T15:11:40;25.70;;;12.70;;
65009;SDS011;51556;50.002;22.014;2023-02-15T15:14:08;30.20;;;16.20;;
65009;SDS011;51556;50.002;22.014;2023-02-15T15:19:03;61.60;;;26.60;;
65009;SDS011;51556;50.002;22.014;2023-02-15T15:37:45;41.30;;;20.00;;
65009;SDS011;51556;50.002;22.014;2023-02-15T15:40:47;38.30;;;20.00;;
65009;SDS011;51556;50.002;22.014;2023-02-15T15:50:57;33.00;;;16.50;;
65009;SDS011;51556;50.002;22.014;2023-02-15T15:53:25;31.40;;;16.70;;
65009;SDS011;51556;50.002;22.014;2023-02-15T15:55:59;36.20;;;21.30;;
65009;SDS011;51556;50.002;22.014;2023-02-15T15:58:29;50.10;;;27.00;;
65009;SDS011;51556;50.002;22.014;2023-02-15T16:01:09;50.70;;;28.40;;
65009;SDS011;51556;50.002;22.014;2023-02-15T16:03:38;49.70;;;28.80;;
65009;SDS011;51556;50.002;22.014;2023-02-15T16:06:25;49.60;;;27.60;;
65009;SDS011;51556;50.002;22.014;2023-02-15T16:11:48;56.40;;;30.30;;
65009;SDS011;51556;50.002;22.014;2023-02-15T16:17:13;61.20;;;31.40;;
65009;SDS011;51556;50.002;22.014;2023-02-15T16:19:44;64.10;;;30.90;;
65009;SDS011;51556;50.002;22.014;2023-02-15T16:22:18;64.80;;;32.80;;
65009;SDS011;51556;50.002;22.014;2023-02-15T16:24:56;66.00;;;33.00;;
65009;SDS011;51556;50.002;22.014;2023-02-15T16:35:32;80.50;;;38.10;;
65009;SDS011;51556;50.002;22.014;2023-02-15T16:37:59;73.20;;;36.20;;
65009;SDS011;51556;50.002;22.014;2023-02-15T16:40:26;81.60;;;36.30;;
65009;SDS011;51556;50.002;22.014;2023-02-15T16:43:02;81.10;;;36.80;;
65009;SDS011;51556;50.002;22.014;2023-02-15T16:45:35;94.80;;;38.80;;
65009;SDS011;51556;50.002;22.014;2023-02-15T16:48:05;101.40;;;44.00;;
65009;SDS011;51556;50.002;22.014;2023-02-15T16:50:37;100.30;;;46.50;;
65009;SDS011;51556;50.002;22.014;2023-02-15T16:53:04;123.80;;;52.70;;
65009;SDS011;51556;50.002;22.014;2023-02-15T16:55:37;147.20;;;61.10;;
65009;SDS011;51556;50.002;22.014;2023-02-15T16:58:06;193.30;;;66.50;;
65009;SDS011;51556;50.002;22.014;2023-02-15T17:00:36;236.10;;;77.20;;
65009;SDS011;51556;50.002;22.014;2023-02-15T17:03:11;258.40;;;82.10;;
65009;SDS011;51556;50.002;22.014;2023-02-15T17:05:47;260.80;;;82.30;;
65009;SDS011;51556;50.002;22.014;2023-02-15T17:11:17;185.80;;;63.20;;
65009;SDS011;51556;50.002;22.014;2023-02-15T17:16:41;156.10;;;55.30;;
65009;SDS011;51556;50.002;22.014;2023-02-15T17:19:19;125.90;;;49.00;;
65009;SDS011;51556;50.002;22.014;2023-02-15T17:21:49;109.00;;;44.50;;
65009;SDS011;51556;50.002;22.014;2023-02-15T17:24:22;107.20;;;43.90;;
65009;SDS011;51556;50.002;22.014;2023-02-15T17:27:00;112.20;;;47.80;;
65009;SDS011;51556;50.002;22.014;2023-02-15T17:29:39;111.50;;;50.50;;
65009;SDS011;51556;50.002;22.014;2023-02-15T17:32:13;120.30;;;51.10;;
65009;SDS011;51556;50.002;22.014;2023-02-15T17:34:42;122.30;;;52.40;;
65009;SDS011;51556;50.002;22.014;2023-02-15T17:37:10;111.70;;;51.30;;
65009;SDS011;51556;50.002;22.014;2023-02-15T17:39:48;121.90;;;49.30;;
65009;SDS011;51556;50.002;22.014;2023-02-15T17:42:14;114.80;;;48.20;;
65009;SDS011;51556;50.002;22.014;2023-02-15T17:44:39;115.40;;;50.40;;
65009;SDS011;51556;50.002;22.014;2023-02-15T17:47:05;117.80;;;52.90;;
65009;SDS011;51556;50.002;22.014;2023-02-15T17:49:30;123.30;;;54.10;;
65009;SDS011;51556;50.002;22.014;2023-02-15T17:52:00;135.20;;;56.90;;
65009;SDS011;51556;50.002;22.014;2023-02-15T17:54:26;145.90;;;56.40;;
65009;SDS011;51556;50.002;22.014;2023-02-15T17:57:11;168.20;;;70.10;;
65009;SDS011;51556;50.002;22.014;2023-02-15T17:59:38;192.80;;;75.40;;
65009;SDS011;51556;50.002;22.014;2023-02-15T18:02:22;203.10;;;78.80;;
65009;SDS011;51556;50.002;22.014;2023-02-15T18:05:11;198.40;;;78.50;;
65009;SDS011;51556;50.002;22.014;2023-02-15T18:07:56;200.70;;;78.90;;
65009;SDS011;51556;50.002;22.014;2023-02-15T18:10:40;184.60;;;75.40;;
65009;SDS011;51556;50.002;22.014;2023-02-15T18:13:24;191.60;;;76.00;;
65009;SDS011;51556;50.002;22.014;2023-02-15T18:15:49;188.70;;;76.30;;
65009;SDS011;51556;50.002;22.014;2023-02-15T18:18:15;186.10;;;74.60;;